AMX5592 MMGL-MMMY
Flight info
| Callsign | AMX5592 |
|---|---|
| Flight time | 1h 4m |
| Altitude | 35000 |
| Route | OTOKI1B OTOKI J42 ZCL UT5 SLW SLW1B |
| Aircraft | B38M/M-SDE1FGHILORVWXY/HB1 |
Departure
| Time | 2026-04-22 02:14 |
|---|---|
| Airport | Guadalajara International Airport (MMGL) |
Arrival
| Time | 2026-04-22 03:18 |
|---|---|
| Airport | Monterrey International Airport (MMMY) |
| Time | Latitude | Longitude | Altitude | Speed | Heading |
|---|---|---|---|---|---|
| 2026-04-22 01:35 | 20.52449 | -103.30130 | 5017 ft | 0 kts | 19° |
| 2026-04-22 01:59 | 20.52436 | -103.30136 | 5016 ft | 2 kts | 25° |
| 2026-04-22 01:59 | 20.52421 | -103.30144 | 5018 ft | 2 kts | 34° |
| 2026-04-22 02:00 | 20.52409 | -103.30155 | 5018 ft | 2 kts | 51° |
| 2026-04-22 02:00 | 20.52401 | -103.30170 | 5015 ft | 2 kts | 79° |
| 2026-04-22 02:00 | 20.52401 | -103.30188 | 5017 ft | 2 kts | 104° |
| 2026-04-22 02:00 | 20.52403 | -103.30195 | 5018 ft | 0 kts | 109° |
| 2026-04-22 02:05 | 20.52397 | -103.30179 | 5018 ft | 5 kts | 108° |
| 2026-04-22 02:06 | 20.52384 | -103.30135 | 5018 ft | 6 kts | 108° |
| 2026-04-22 02:06 | 20.52366 | -103.30076 | 5018 ft | 11 kts | 108° |
| 2026-04-22 02:06 | 20.52341 | -103.30046 | 5019 ft | 5 kts | 159° |
| 2026-04-22 02:06 | 20.52308 | -103.30041 | 5017 ft | 6 kts | 177° |
| 2026-04-22 02:07 | 20.52257 | -103.30052 | 5019 ft | 8 kts | 197° |
| 2026-04-22 02:07 | 20.52200 | -103.30071 | 5018 ft | 10 kts | 197° |
| 2026-04-22 02:07 | 20.52141 | -103.30078 | 5020 ft | 7 kts | 147° |
| 2026-04-22 02:07 | 20.52106 | -103.30015 | 5015 ft | 13 kts | 109° |
| 2026-04-22 02:08 | 20.52082 | -103.29940 | 5020 ft | 8 kts | 109° |
| 2026-04-22 02:08 | 20.52064 | -103.29895 | 5019 ft | 6 kts | 120° |
| 2026-04-22 02:08 | 20.52047 | -103.29867 | 5020 ft | 4 kts | 125° |
| 2026-04-22 02:08 | 20.52025 | -103.29833 | 5020 ft | 9 kts | 126° |
| 2026-04-22 02:09 | 20.51979 | -103.29766 | 5018 ft | 11 kts | 126° |
| 2026-04-22 02:09 | 20.51937 | -103.29705 | 5020 ft | 9 kts | 128° |
| 2026-04-22 02:09 | 20.51903 | -103.29658 | 5016 ft | 7 kts | 127° |
| 2026-04-22 02:09 | 20.51878 | -103.29621 | 5016 ft | 6 kts | 125° |
| 2026-04-22 02:10 | 20.51837 | -103.29561 | 5020 ft | 12 kts | 126° |
| 2026-04-22 02:10 | 20.51792 | -103.29495 | 5014 ft | 10 kts | 126° |
| 2026-04-22 02:10 | 20.51754 | -103.29440 | 5020 ft | 8 kts | 126° |
| 2026-04-22 02:10 | 20.51725 | -103.29398 | 5020 ft | 6 kts | 126° |
| 2026-04-22 02:11 | 20.51697 | -103.29357 | 5019 ft | 9 kts | 125° |
| 2026-04-22 02:11 | 20.51648 | -103.29285 | 5015 ft | 13 kts | 126° |
| 2026-04-22 02:11 | 20.51601 | -103.29224 | 5017 ft | 9 kts | 149° |
| 2026-04-22 02:11 | 20.51546 | -103.29216 | 5016 ft | 7 kts | 192° |
| 2026-04-22 02:12 | 20.51502 | -103.29233 | 5015 ft | 6 kts | 202° |
| 2026-04-22 02:12 | 20.51464 | -103.29249 | 5018 ft | 5 kts | 202° |
| 2026-04-22 02:12 | 20.51436 | -103.29265 | 5018 ft | 4 kts | 224° |
| 2026-04-22 02:12 | 20.51428 | -103.29288 | 5018 ft | 5 kts | 270° |
| 2026-04-22 02:13 | 20.51437 | -103.29333 | 5013 ft | 6 kts | 282° |
| 2026-04-22 02:13 | 20.51454 | -103.29385 | 5015 ft | 22 kts | 293° |
| 2026-04-22 02:13 | 20.51612 | -103.29765 | 5019 ft | 90 kts | 294° |
| 2026-04-22 02:13 | 20.51953 | -103.30571 | 5019 ft | 147 kts | 294° |
| 2026-04-22 02:14 | 20.52424 | -103.31687 | 5272 ft | 168 kts | 293° |
| 2026-04-22 02:14 | 20.52886 | -103.32832 | 5912 ft | 178 kts | 293° |
| 2026-04-22 02:14 | 20.53419 | -103.34079 | 6412 ft | 191 kts | 293° |
| 2026-04-22 02:14 | 20.53980 | -103.35409 | 6956 ft | 200 kts | 293° |
| 2026-04-22 02:15 | 20.54567 | -103.36795 | 7463 ft | 210 kts | 294° |
| 2026-04-22 02:15 | 20.55180 | -103.38254 | 8006 ft | 220 kts | 293° |
| 2026-04-22 02:15 | 20.55825 | -103.39791 | 8507 ft | 234 kts | 293° |
| 2026-04-22 02:15 | 20.56518 | -103.41453 | 8909 ft | 255 kts | 292° |
| 2026-04-22 02:16 | 20.57253 | -103.43182 | 9696 ft | 258 kts | 292° |
| 2026-04-22 02:16 | 20.58009 | -103.44941 | 10410 ft | 258 kts | 291° |
| 2026-04-22 02:16 | 20.58712 | -103.46689 | 11196 ft | 258 kts | 294° |
| 2026-04-22 02:16 | 20.59734 | -103.48289 | 11642 ft | 273 kts | 321° |
| 2026-04-22 02:17 | 20.61486 | -103.49131 | 12128 ft | 285 kts | 352° |
| 2026-04-22 02:17 | 20.63497 | -103.48940 | 12720 ft | 301 kts | 19° |
| 2026-04-22 02:17 | 20.65291 | -103.47679 | 13153 ft | 319 kts | 47° |
| 2026-04-22 02:17 | 20.66400 | -103.45619 | 13807 ft | 325 kts | 68° |
| 2026-04-22 02:18 | 20.67264 | -103.43330 | 14324 ft | 341 kts | 66° |
| 2026-04-22 02:18 | 20.68186 | -103.40976 | 14926 ft | 346 kts | 65° |
| 2026-04-22 02:18 | 20.69126 | -103.38606 | 15598 ft | 350 kts | 66° |
| 2026-04-22 02:18 | 20.70085 | -103.36200 | 16153 ft | 356 kts | 66° |
| 2026-04-22 02:19 | 20.71277 | -103.33867 | 16923 ft | 354 kts | 50° |
| 2026-04-22 02:19 | 20.73042 | -103.32023 | 17500 ft | 357 kts | 33° |
| 2026-04-22 02:19 | 20.75298 | -103.30875 | 18156 ft | 361 kts | 19° |
| 2026-04-22 02:19 | 20.77693 | -103.29920 | 18683 ft | 370 kts | 19° |
| 2026-04-22 02:20 | 20.80087 | -103.29008 | 19367 ft | 372 kts | 18° |
| 2026-04-22 02:20 | 20.82534 | -103.28110 | 19853 ft | 375 kts | 17° |
| 2026-04-22 02:20 | 20.85025 | -103.27217 | 20385 ft | 379 kts | 17° |
| 2026-04-22 02:20 | 20.87517 | -103.26334 | 20906 ft | 378 kts | 17° |
| 2026-04-22 02:21 | 20.90022 | -103.25442 | 21280 ft | 382 kts | 16° |
| 2026-04-22 02:21 | 20.92576 | -103.24534 | 21779 ft | 389 kts | 16° |
| 2026-04-22 02:21 | 20.95152 | -103.23629 | 22334 ft | 393 kts | 15° |
| 2026-04-22 02:21 | 20.97755 | -103.22715 | 22956 ft | 393 kts | 15° |
| 2026-04-22 02:22 | 21.00372 | -103.21794 | 23394 ft | 399 kts | 16° |
| 2026-04-22 02:22 | 21.03002 | -103.20854 | 23975 ft | 398 kts | 15° |
| 2026-04-22 02:22 | 21.05637 | -103.19931 | 24403 ft | 399 kts | 15° |
| 2026-04-22 02:22 | 21.08283 | -103.18994 | 24738 ft | 400 kts | 15° |
| 2026-04-22 02:23 | 21.10944 | -103.18064 | 25078 ft | 405 kts | 15° |
| 2026-04-22 02:23 | 21.13638 | -103.17114 | 25424 ft | 409 kts | 15° |
| 2026-04-22 02:23 | 21.16359 | -103.16157 | 25760 ft | 415 kts | 15° |
| 2026-04-22 02:23 | 21.19113 | -103.15173 | 26157 ft | 418 kts | 15° |
| 2026-04-22 02:24 | 21.21862 | -103.14196 | 26707 ft | 416 kts | 14° |
| 2026-04-22 02:24 | 21.24637 | -103.13219 | 26938 ft | 422 kts | 13° |
| 2026-04-22 02:24 | 21.27389 | -103.12253 | 27482 ft | 421 kts | 14° |
| 2026-04-22 02:24 | 21.30185 | -103.11260 | 27827 ft | 424 kts | 14° |
| 2026-04-22 02:25 | 21.33026 | -103.10329 | 28117 ft | 425 kts | 8° |
| 2026-04-22 02:25 | 21.35914 | -103.09620 | 28482 ft | 428 kts | 8° |
| 2026-04-22 02:25 | 21.38816 | -103.08882 | 28832 ft | 430 kts | 9° |
| 2026-04-22 02:25 | 21.41739 | -103.08123 | 29176 ft | 432 kts | 9° |
| 2026-04-22 02:26 | 21.44669 | -103.07356 | 29504 ft | 435 kts | 9° |
| 2026-04-22 02:26 | 21.47620 | -103.06585 | 29855 ft | 438 kts | 8° |
| 2026-04-22 02:26 | 21.50578 | -103.05809 | 30291 ft | 437 kts | 8° |
| 2026-04-22 02:26 | 21.53557 | -103.05019 | 30467 ft | 445 kts | 8° |
| 2026-04-22 02:27 | 21.56558 | -103.04230 | 30863 ft | 444 kts | 8° |
| 2026-04-22 02:27 | 21.59592 | -103.03436 | 31142 ft | 450 kts | 8° |
| 2026-04-22 02:27 | 21.62645 | -103.02631 | 31423 ft | 454 kts | 9° |
| 2026-04-22 02:27 | 21.65713 | -103.01819 | 31813 ft | 453 kts | 9° |
| 2026-04-22 02:28 | 21.68788 | -103.01008 | 32039 ft | 457 kts | 9° |
| 2026-04-22 02:28 | 21.71855 | -103.00201 | 32271 ft | 459 kts | 9° |
| 2026-04-22 02:28 | 21.74966 | -102.99379 | 32517 ft | 462 kts | 9° |
| 2026-04-22 02:28 | 21.77081 | -102.98821 | 32679 ft | 463 kts | 9° |
| 2026-04-22 02:29 | 21.81245 | -102.97721 | 33019 ft | 467 kts | 9° |
| 2026-04-22 02:29 | 21.83346 | -102.97166 | 33179 ft | 469 kts | 9° |
| 2026-04-22 02:29 | 21.86512 | -102.96329 | 33464 ft | 470 kts | 9° |
| 2026-04-22 02:29 | 21.89690 | -102.95489 | 33790 ft | 470 kts | 9° |
| 2026-04-22 02:30 | 21.92866 | -102.94649 | 34112 ft | 470 kts | 9° |
| 2026-04-22 02:30 | 21.96043 | -102.93818 | 34437 ft | 470 kts | 9° |
| 2026-04-22 02:30 | 21.99214 | -102.92996 | 34812 ft | 467 kts | 8° |
| 2026-04-22 02:30 | 22.02379 | -102.92167 | 35124 ft | 468 kts | 9° |
| 2026-04-22 02:31 | 22.05559 | -102.91335 | 35271 ft | 471 kts | 8° |
| 2026-04-22 02:31 | 22.11929 | -102.89659 | 35300 ft | 470 kts | 8° |
| 2026-04-22 02:32 | 22.18297 | -102.87982 | 35295 ft | 470 kts | 8° |
| 2026-04-22 02:32 | 22.24649 | -102.86308 | 35293 ft | 470 kts | 8° |
| 2026-04-22 02:33 | 22.30998 | -102.84633 | 35287 ft | 470 kts | 8° |
| 2026-04-22 02:33 | 22.37312 | -102.82966 | 35305 ft | 470 kts | 8° |
| 2026-04-22 02:34 | 22.43669 | -102.81286 | 35296 ft | 470 kts | 8° |
| 2026-04-22 02:34 | 22.50020 | -102.79605 | 35292 ft | 470 kts | 8° |
| 2026-04-22 02:35 | 22.56381 | -102.77921 | 35293 ft | 470 kts | 8° |
| 2026-04-22 02:35 | 22.62747 | -102.76233 | 35296 ft | 470 kts | 8° |
| 2026-04-22 02:36 | 22.69109 | -102.74546 | 35292 ft | 470 kts | 8° |
| 2026-04-22 02:36 | 22.75467 | -102.72857 | 35293 ft | 471 kts | 8° |
| 2026-04-22 02:37 | 22.81794 | -102.71175 | 35293 ft | 471 kts | 8° |
| 2026-04-22 02:37 | 22.88156 | -102.69383 | 35281 ft | 476 kts | 16° |
| 2026-04-22 02:37 | 22.91115 | -102.67714 | 35301 ft | 482 kts | 27° |
| 2026-04-22 02:38 | 22.94012 | -102.65861 | 35287 ft | 484 kts | 25° |
| 2026-04-22 02:38 | 22.99817 | -102.62145 | 35290 ft | 485 kts | 26° |
| 2026-04-22 02:39 | 23.05623 | -102.58381 | 35296 ft | 486 kts | 26° |
| 2026-04-22 02:39 | 23.11425 | -102.54612 | 35296 ft | 486 kts | 26° |
| 2026-04-22 02:40 | 23.17198 | -102.50858 | 35293 ft | 486 kts | 26° |
| 2026-04-22 02:40 | 23.23010 | -102.47075 | 35295 ft | 487 kts | 26° |
| 2026-04-22 02:41 | 23.28827 | -102.43285 | 35292 ft | 488 kts | 26° |
| 2026-04-22 02:41 | 23.34652 | -102.39485 | 35293 ft | 488 kts | 26° |
| 2026-04-22 02:42 | 23.40489 | -102.35674 | 35295 ft | 489 kts | 26° |
| 2026-04-22 02:42 | 23.46293 | -102.31880 | 35294 ft | 489 kts | 26° |
| 2026-04-22 02:43 | 23.52149 | -102.28049 | 35282 ft | 490 kts | 26° |
| 2026-04-22 02:43 | 23.57978 | -102.24231 | 35269 ft | 490 kts | 26° |
| 2026-04-22 02:44 | 23.63835 | -102.20389 | 35263 ft | 490 kts | 26° |
| 2026-04-22 02:44 | 23.69693 | -102.16541 | 35263 ft | 492 kts | 26° |
| 2026-04-22 02:45 | 23.75577 | -102.12671 | 35245 ft | 491 kts | 26° |
| 2026-04-22 02:45 | 23.81410 | -102.08832 | 35246 ft | 492 kts | 26° |
| 2026-04-22 02:46 | 23.87297 | -102.04952 | 35235 ft | 492 kts | 26° |
| 2026-04-22 02:46 | 23.93176 | -102.01074 | 35239 ft | 493 kts | 26° |
| 2026-04-22 02:47 | 23.99044 | -101.97201 | 35228 ft | 492 kts | 26° |
| 2026-04-22 02:47 | 24.04906 | -101.93330 | 35231 ft | 492 kts | 26° |
| 2026-04-22 02:48 | 24.10741 | -101.89472 | 35219 ft | 492 kts | 26° |
| 2026-04-22 02:48 | 24.16598 | -101.85596 | 35221 ft | 492 kts | 26° |
| 2026-04-22 02:49 | 24.22447 | -101.81720 | 35216 ft | 492 kts | 26° |
| 2026-04-22 02:49 | 24.28297 | -101.77841 | 35219 ft | 489 kts | 25° |
| 2026-04-22 02:50 | 24.34080 | -101.74001 | 35214 ft | 483 kts | 25° |
| 2026-04-22 02:50 | 24.39806 | -101.70194 | 35209 ft | 482 kts | 25° |
| 2026-04-22 02:51 | 24.45595 | -101.66342 | 35206 ft | 483 kts | 25° |
| 2026-04-22 02:51 | 24.51342 | -101.62514 | 35203 ft | 484 kts | 25° |
| 2026-04-22 02:52 | 24.57082 | -101.58687 | 35206 ft | 484 kts | 25° |
| 2026-04-22 02:52 | 24.62836 | -101.54845 | 35198 ft | 484 kts | 25° |
| 2026-04-22 02:53 | 24.68620 | -101.50980 | 35195 ft | 484 kts | 25° |
| 2026-04-22 02:53 | 24.74359 | -101.47140 | 35206 ft | 484 kts | 25° |
| 2026-04-22 02:54 | 24.80105 | -101.43292 | 35202 ft | 484 kts | 25° |
| 2026-04-22 02:54 | 24.85862 | -101.39430 | 35187 ft | 484 kts | 25° |
| 2026-04-22 02:55 | 24.91604 | -101.35574 | 35195 ft | 485 kts | 25° |
| 2026-04-22 02:55 | 24.97395 | -101.31681 | 35193 ft | 485 kts | 25° |
| 2026-04-22 02:56 | 25.03141 | -101.27814 | 35187 ft | 485 kts | 25° |
| 2026-04-22 02:56 | 25.08849 | -101.23968 | 34759 ft | 476 kts | 25° |
| 2026-04-22 02:56 | 25.11687 | -101.22055 | 34165 ft | 476 kts | 25° |
| 2026-04-22 02:57 | 25.14501 | -101.20156 | 33600 ft | 474 kts | 25° |
| 2026-04-22 02:57 | 25.17324 | -101.18250 | 33070 ft | 471 kts | 25° |
| 2026-04-22 02:57 | 25.20099 | -101.16376 | 32585 ft | 467 kts | 25° |
| 2026-04-22 02:57 | 25.22852 | -101.14516 | 32083 ft | 464 kts | 25° |
| 2026-04-22 02:58 | 25.25604 | -101.12654 | 31570 ft | 461 kts | 25° |
| 2026-04-22 02:58 | 25.28325 | -101.10815 | 31084 ft | 458 kts | 25° |
| 2026-04-22 02:58 | 25.31033 | -101.08982 | 30571 ft | 456 kts | 25° |
| 2026-04-22 02:58 | 25.33745 | -101.07145 | 30077 ft | 453 kts | 25° |
| 2026-04-22 02:59 | 25.36404 | -101.05344 | 29597 ft | 450 kts | 25° |
| 2026-04-22 02:59 | 25.39078 | -101.03529 | 29100 ft | 448 kts | 25° |
| 2026-04-22 02:59 | 25.41728 | -101.01732 | 28632 ft | 445 kts | 25° |
| 2026-04-22 02:59 | 25.44350 | -100.99953 | 28157 ft | 441 kts | 25° |
| 2026-04-22 03:00 | 25.46942 | -100.98194 | 27701 ft | 438 kts | 25° |
| 2026-04-22 03:00 | 25.49543 | -100.96426 | 27247 ft | 435 kts | 26° |
| 2026-04-22 03:00 | 25.51968 | -100.94371 | 26708 ft | 444 kts | 42° |
| 2026-04-22 03:00 | 25.53746 | -100.91598 | 26283 ft | 449 kts | 62° |
| 2026-04-22 03:01 | 25.54667 | -100.88293 | 25875 ft | 449 kts | 82° |
| 2026-04-22 03:01 | 25.54720 | -100.84843 | 25451 ft | 445 kts | 91° |
| 2026-04-22 03:01 | 25.54709 | -100.81434 | 24987 ft | 443 kts | 89° |
| 2026-04-22 03:01 | 25.54730 | -100.78009 | 24528 ft | 441 kts | 89° |
| 2026-04-22 03:02 | 25.54754 | -100.74649 | 24098 ft | 439 kts | 89° |
| 2026-04-22 03:02 | 25.54777 | -100.71278 | 23637 ft | 437 kts | 89° |
| 2026-04-22 03:02 | 25.54799 | -100.67915 | 23197 ft | 435 kts | 89° |
| 2026-04-22 03:02 | 25.54821 | -100.64585 | 22732 ft | 433 kts | 89° |
| 2026-04-22 03:03 | 25.54842 | -100.61230 | 22297 ft | 431 kts | 89° |
| 2026-04-22 03:03 | 25.54862 | -100.57947 | 21860 ft | 429 kts | 89° |
| 2026-04-22 03:03 | 25.54881 | -100.54642 | 21416 ft | 426 kts | 89° |
| 2026-04-22 03:03 | 25.54900 | -100.51355 | 20986 ft | 424 kts | 89° |
| 2026-04-22 03:04 | 25.54917 | -100.48104 | 20528 ft | 423 kts | 89° |
| 2026-04-22 03:04 | 25.54934 | -100.44863 | 20161 ft | 419 kts | 89° |
| 2026-04-22 03:04 | 25.54949 | -100.41664 | 20129 ft | 404 kts | 89° |
| 2026-04-22 03:04 | 25.54962 | -100.38632 | 20053 ft | 393 kts | 89° |
| 2026-04-22 03:05 | 25.55000 | -100.35614 | 19581 ft | 393 kts | 85° |
| 2026-04-22 03:05 | 25.55661 | -100.32710 | 19080 ft | 389 kts | 59° |
| 2026-04-22 03:05 | 25.57295 | -100.30382 | 18608 ft | 379 kts | 34° |
| 2026-04-22 03:05 | 25.59561 | -100.29016 | 18166 ft | 367 kts | 14° |
| 2026-04-22 03:06 | 25.61928 | -100.27914 | 17648 ft | 372 kts | 26° |
| 2026-04-22 03:06 | 25.64124 | -100.26385 | 17080 ft | 373 kts | 27° |
| 2026-04-22 03:06 | 25.66350 | -100.24911 | 16597 ft | 369 kts | 26° |
| 2026-04-22 03:06 | 25.68548 | -100.23497 | 16275 ft | 360 kts | 25° |
| 2026-04-22 03:07 | 25.70703 | -100.22173 | 15995 ft | 351 kts | 25° |
| 2026-04-22 03:07 | 25.72805 | -100.20869 | 15734 ft | 341 kts | 25° |
| 2026-04-22 03:07 | 25.74835 | -100.19599 | 15492 ft | 332 kts | 25° |
| 2026-04-22 03:07 | 25.76828 | -100.18345 | 15213 ft | 325 kts | 25° |
| 2026-04-22 03:08 | 25.78797 | -100.17098 | 14831 ft | 326 kts | 25° |
| 2026-04-22 03:08 | 25.80763 | -100.15848 | 14412 ft | 327 kts | 26° |
| 2026-04-22 03:08 | 25.82750 | -100.14581 | 13917 ft | 330 kts | 26° |
| 2026-04-22 03:08 | 25.84750 | -100.13307 | 13549 ft | 329 kts | 26° |
| 2026-04-22 03:09 | 25.86716 | -100.12056 | 13225 ft | 326 kts | 26° |
| 2026-04-22 03:09 | 25.88707 | -100.10835 | 12837 ft | 322 kts | 19° |
| 2026-04-22 03:09 | 25.90843 | -100.10377 | 12318 ft | 312 kts | 352° |
| 2026-04-22 03:09 | 25.92860 | -100.11053 | 11791 ft | 305 kts | 328° |
| 2026-04-22 03:10 | 25.94036 | -100.11958 | 11432 ft | 303 kts | 317° |
| 2026-04-22 03:10 | 25.95410 | -100.13682 | 10906 ft | 301 kts | 301° |
| 2026-04-22 03:10 | 25.96191 | -100.15820 | 10369 ft | 299 kts | 281° |
| 2026-04-22 03:10 | 25.96597 | -100.18086 | 9844 ft | 299 kts | 281° |
| 2026-04-22 03:11 | 25.97038 | -100.20371 | 9297 ft | 300 kts | 281° |
| 2026-04-22 03:11 | 25.97482 | -100.22608 | 8759 ft | 300 kts | 281° |
| 2026-04-22 03:11 | 25.97812 | -100.24915 | 8178 ft | 297 kts | 266° |
| 2026-04-22 03:11 | 25.97217 | -100.27033 | 7615 ft | 290 kts | 233° |
| 2026-04-22 03:12 | 25.95703 | -100.28429 | 7079 ft | 282 kts | 205° |
| 2026-04-22 03:12 | 25.92361 | -100.30499 | 6192 ft | 264 kts | 209° |
| 2026-04-22 03:12 | 25.90725 | -100.31226 | 5749 ft | 248 kts | 184° |
| 2026-04-22 03:13 | 25.89125 | -100.30792 | 5317 ft | 231 kts | 146° |
| 2026-04-22 03:13 | 25.88160 | -100.29518 | 5071 ft | 202 kts | 121° |
| 2026-04-22 03:13 | 25.87510 | -100.28288 | 5007 ft | 167 kts | 123° |
| 2026-04-22 03:13 | 25.86919 | -100.27212 | 4758 ft | 163 kts | 124° |
| 2026-04-22 03:14 | 25.86327 | -100.26142 | 4514 ft | 159 kts | 123° |
| 2026-04-22 03:14 | 25.85776 | -100.25136 | 4298 ft | 151 kts | 123° |
| 2026-04-22 03:14 | 25.85230 | -100.24142 | 4053 ft | 147 kts | 123° |
| 2026-04-22 03:14 | 25.84700 | -100.23179 | 3813 ft | 145 kts | 124° |
| 2026-04-22 03:15 | 25.84176 | -100.22225 | 3578 ft | 143 kts | 124° |
| 2026-04-22 03:15 | 25.83670 | -100.21302 | 3359 ft | 141 kts | 124° |
| 2026-04-22 03:15 | 25.83154 | -100.20362 | 3145 ft | 142 kts | 124° |
| 2026-04-22 03:15 | 25.82639 | -100.19420 | 2923 ft | 141 kts | 124° |
| 2026-04-22 03:16 | 25.82133 | -100.18495 | 2706 ft | 141 kts | 123° |
| 2026-04-22 03:16 | 25.81615 | -100.17550 | 2500 ft | 147 kts | 123° |
| 2026-04-22 03:16 | 25.81080 | -100.16548 | 2358 ft | 155 kts | 120° |
| 2026-04-22 03:16 | 25.80514 | -100.15502 | 2202 ft | 158 kts | 122° |
| 2026-04-22 03:17 | 25.79942 | -100.14457 | 2012 ft | 159 kts | 120° |
| 2026-04-22 03:17 | 25.79375 | -100.13420 | 1805 ft | 158 kts | 123° |
| 2026-04-22 03:17 | 25.78789 | -100.12380 | 1529 ft | 157 kts | 121° |
| 2026-04-22 03:17 | 25.78221 | -100.11355 | 1299 ft | 151 kts | 121° |
| 2026-04-22 03:18 | 25.77730 | -100.10466 | 1270 ft | 115 kts | 121° |
| 2026-04-22 03:18 | 25.77417 | -100.09906 | 1261 ft | 64 kts | 121° |
| 2026-04-22 03:18 | 25.77296 | -100.09709 | 1263 ft | 21 kts | 150° |
| 2026-04-22 03:18 | 25.77209 | -100.09724 | 1255 ft | 11 kts | 206° |
| 2026-04-22 03:19 | 25.77172 | -100.09744 | 1255 ft | 0 kts | 207° |
| 2026-04-22 03:19 | 25.77168 | -100.09746 | 1255 ft | 2 kts | 207° |
| 2026-04-22 03:19 | 25.77146 | -100.09771 | 1255 ft | 7 kts | 245° |
| 2026-04-22 03:20 | 25.77154 | -100.09830 | 1256 ft | 8 kts | 298° |
| 2026-04-22 03:20 | 25.77186 | -100.09886 | 1265 ft | 9 kts | 302° |
| 2026-04-22 03:20 | 25.77220 | -100.09946 | 1262 ft | 10 kts | 302° |
| 2026-04-22 03:20 | 25.77257 | -100.10013 | 1270 ft | 11 kts | 302° |
| 2026-04-22 03:21 | 25.77297 | -100.10084 | 1261 ft | 11 kts | 301° |
| 2026-04-22 03:21 | 25.77340 | -100.10162 | 1262 ft | 12 kts | 301° |
| 2026-04-22 03:21 | 25.77383 | -100.10242 | 1271 ft | 13 kts | 301° |
| 2026-04-22 03:21 | 25.77429 | -100.10327 | 1266 ft | 13 kts | 301° |
| 2026-04-22 03:22 | 25.77477 | -100.10415 | 1277 ft | 14 kts | 301° |
| 2026-04-22 03:22 | 25.77496 | -100.10451 | 1268 ft | 4 kts | 302° |
| 2026-04-22 03:22 | 25.77526 | -100.10505 | 1275 ft | 10 kts | 301° |
| 2026-04-22 03:22 | 25.77563 | -100.10573 | 1273 ft | 10 kts | 301° |
| 2026-04-22 03:23 | 25.77603 | -100.10645 | 1274 ft | 12 kts | 303° |
| 2026-04-22 03:23 | 25.77628 | -100.10688 | 1272 ft | 0 kts | 301° |
| 2026-04-22 03:23 | 25.77630 | -100.10692 | 1272 ft | 2 kts | 301° |
| 2026-04-22 03:24 | 25.77655 | -100.10738 | 1273 ft | 13 kts | 300° |
| 2026-04-22 03:24 | 25.77710 | -100.10841 | 1274 ft | 17 kts | 302° |
| 2026-04-22 03:24 | 25.77773 | -100.10954 | 1275 ft | 18 kts | 302° |
| 2026-04-22 03:24 | 25.77824 | -100.11049 | 1275 ft | 9 kts | 290° |
| 2026-04-22 03:25 | 25.77798 | -100.11106 | 1277 ft | 10 kts | 218° |
| 2026-04-22 03:25 | 25.77731 | -100.11159 | 1278 ft | 13 kts | 215° |
| 2026-04-22 03:25 | 25.77680 | -100.11204 | 1275 ft | 9 kts | 226° |
| 2026-04-22 03:25 | 25.77669 | -100.11270 | 1277 ft | 9 kts | 293° |
| 2026-04-22 03:26 | 25.77698 | -100.11301 | 1278 ft | 5 kts | 343° |
| 2026-04-22 03:26 | 25.77733 | -100.11294 | 1278 ft | 6 kts | 28° |
| 2026-04-22 03:26 | 25.77748 | -100.11284 | 1277 ft | 1 kts | 33° |
| 2026-04-22 03:26 | 25.77749 | -100.11283 | 1277 ft | 0 kts | 33° |